createdAt,value
2018-06-12T00:00:13.672Z,3.57
2018-06-12T00:03:12.671Z,3.30
2018-06-12T00:06:10.605Z,3.30
2018-06-12T00:09:08.648Z,4.20
2018-06-12T00:12:06.728Z,4.03
2018-06-12T00:15:04.111Z,3.80
2018-06-12T00:18:01.458Z,4.10
2018-06-12T00:20:59.348Z,3.83
2018-06-12T00:23:57.444Z,3.77
2018-06-12T00:26:55.719Z,3.90
2018-06-12T00:29:53.419Z,4.23
2018-06-12T00:32:51.401Z,4.17
2018-06-12T00:35:49.023Z,3.53
2018-06-12T00:38:47.167Z,3.47
2018-06-12T00:41:45.213Z,4.30
2018-06-12T00:44:43.399Z,3.77
2018-06-12T00:47:41.307Z,4.10
2018-06-12T00:50:39.375Z,4.37
2018-06-12T00:53:37.224Z,3.73
2018-06-12T00:56:46.321Z,3.80
2018-06-12T00:59:43.603Z,4.83
2018-06-12T01:02:41.575Z,3.83
2018-06-12T01:05:38.745Z,6.20
2018-06-12T01:08:36.807Z,4.13
2018-06-12T01:11:34.825Z,4.30
2018-06-12T01:14:32.728Z,4.37
2018-06-12T01:17:30.739Z,4.70
2018-06-12T01:20:28.799Z,3.30
2018-06-12T01:23:26.816Z,3.90
2018-06-12T01:26:24.719Z,3.70
2018-06-12T01:29:22.807Z,3.37
2018-06-12T01:32:21.043Z,3.87
2018-06-12T01:35:18.914Z,3.83
2018-06-12T01:38:17.216Z,3.23
2018-06-12T01:41:15.159Z,3.50
2018-06-12T01:44:13.043Z,2.63
2018-06-12T01:47:11.152Z,2.93
2018-06-12T01:50:08.907Z,3.30
2018-06-12T01:53:06.926Z,3.00
2018-06-12T01:56:04.965Z,2.93
2018-06-12T01:59:02.478Z,2.63
2018-06-12T02:02:00.094Z,3.30
2018-06-12T02:04:58.138Z,2.90
2018-06-12T02:07:56.196Z,2.70
2018-06-12T02:10:54.264Z,3.27
2018-06-12T02:13:52.263Z,3.13
2018-06-12T02:16:50.332Z,2.90
2018-06-12T02:19:48.312Z,2.60
2018-06-12T02:22:46.457Z,2.83
2018-06-12T02:25:44.521Z,3.10
2018-06-12T02:28:41.905Z,2.97
2018-06-12T02:31:38.960Z,2.70
2018-06-12T02:34:37.123Z,3.00
2018-06-12T02:37:35.277Z,3.10
2018-06-12T02:40:33.279Z,3.20
2018-06-12T02:43:31.410Z,3.27
2018-06-12T02:46:29.532Z,2.70
2018-06-12T02:49:27.466Z,3.00
2018-06-12T02:52:25.639Z,3.10
2018-06-12T02:55:23.532Z,3.03
2018-06-12T02:58:21.561Z,2.83
2018-06-12T03:01:19.549Z,2.30
2018-06-12T03:04:17.547Z,2.50
2018-06-12T03:07:15.367Z,2.43
2018-06-12T03:10:13.333Z,2.33
2018-06-12T03:13:11.268Z,3.47
2018-06-12T03:35:39.621Z,2.70
2018-06-12T03:38:37.504Z,2.13
2018-06-12T03:41:35.496Z,2.60
2018-06-12T03:44:33.470Z,2.37
2018-06-12T03:47:31.196Z,2.47
2018-06-12T03:50:28.868Z,2.70
2018-06-12T03:53:26.923Z,2.63
2018-06-12T03:56:24.804Z,2.93
2018-06-12T03:59:22.791Z,2.73
2018-06-12T04:02:20.041Z,2.73
2018-06-12T04:05:10.427Z,2.50
2018-06-12T04:08:08.344Z,3.10
2018-06-12T04:11:05.493Z,2.67
2018-06-12T04:14:02.970Z,2.40
2018-06-12T04:17:01.030Z,2.60
2018-06-12T04:19:58.286Z,3.03
2018-06-12T04:22:57.359Z,2.30
2018-06-12T04:25:55.116Z,2.23
2018-06-12T04:28:54.219Z,2.63
2018-06-12T04:31:52.114Z,2.40
2018-06-12T04:34:49.510Z,2.80
2018-06-12T04:37:47.155Z,2.30
2018-06-12T04:40:44.935Z,2.37
2018-06-12T04:43:42.720Z,1.97
2018-06-12T04:46:40.572Z,1.93
2018-06-12T04:49:38.591Z,2.50
2018-06-12T04:52:36.436Z,2.33
2018-06-12T04:55:34.517Z,1.90
2018-06-12T04:58:32.391Z,2.07
2018-06-12T05:01:30.117Z,2.10
2018-06-12T05:04:28.066Z,3.00
2018-06-12T05:07:25.871Z,2.30
2018-06-12T05:10:23.722Z,2.20
2018-06-12T05:13:21.539Z,2.00
2018-06-12T05:16:19.234Z,2.50
2018-06-12T05:19:17.196Z,1.67
2018-06-12T05:22:14.894Z,2.23
2018-06-12T05:25:12.755Z,1.77
2018-06-12T05:28:10.504Z,2.00
2018-06-12T05:31:08.425Z,2.50
2018-06-12T05:34:05.527Z,2.20
2018-06-12T05:37:03.320Z,2.10
2018-06-12T05:40:01.196Z,2.23
2018-06-12T05:42:58.959Z,1.90
2018-06-12T05:45:56.583Z,2.40
2018-06-12T05:48:54.744Z,2.00
2018-06-12T05:51:52.242Z,2.13
2018-06-12T05:54:50.150Z,1.80
2018-06-12T05:57:47.913Z,1.93
2018-06-12T06:00:46.546Z,2.23
2018-06-12T06:03:44.275Z,2.27
2018-06-12T06:06:42.003Z,1.83
2018-06-12T06:09:39.802Z,1.83
2018-06-12T06:12:37.533Z,2.30
2018-06-12T06:15:36.354Z,2.27
2018-06-12T06:18:34.165Z,2.97
2018-06-12T06:21:32.028Z,2.10
2018-06-12T06:24:29.949Z,2.40
2018-06-12T06:27:27.655Z,2.40
2018-06-12T06:30:25.755Z,2.13
2018-06-12T06:33:24.221Z,2.13
2018-06-12T06:36:21.751Z,2.80
2018-06-12T06:39:20.782Z,2.70
2018-06-12T06:42:18.845Z,2.23
2018-06-12T06:45:16.461Z,1.73
2018-06-12T06:48:14.456Z,3.00
2018-06-12T06:51:12.035Z,2.77
2018-06-12T06:54:09.851Z,1.93
2018-06-12T06:57:07.753Z,2.10
2018-06-12T07:00:06.200Z,2.00
2018-06-12T07:03:03.744Z,2.00
2018-06-12T07:06:01.543Z,2.07
2018-06-12T07:08:59.363Z,2.63
2018-06-12T07:11:57.152Z,2.23
2018-06-12T07:14:55.049Z,3.07
2018-06-12T07:17:53.882Z,2.40
2018-06-12T07:21:33.492Z,2.30
2018-06-12T07:24:31.261Z,2.00
2018-06-12T07:27:28.944Z,2.60
2018-06-12T07:30:26.833Z,2.60
2018-06-12T07:33:24.280Z,3.60
2018-06-12T07:36:22.144Z,2.37
2018-06-12T07:39:22.268Z,2.70
2018-06-12T07:42:20.057Z,2.33
2018-06-12T07:45:18.109Z,2.13
2018-06-12T07:48:15.853Z,2.57
2018-06-12T07:51:13.682Z,2.30
2018-06-12T07:54:12.289Z,2.50
2018-06-12T07:57:10.246Z,2.10
2018-06-12T08:00:08.081Z,2.00
2018-06-12T08:03:05.923Z,1.87
2018-06-12T08:06:03.675Z,3.07
2018-06-12T08:09:01.305Z,1.60
2018-06-12T08:11:59.081Z,1.53
2018-06-12T08:14:56.674Z,1.70
2018-06-12T08:17:55.320Z,2.23
2018-06-12T08:20:53.124Z,2.23
2018-06-12T08:23:50.924Z,2.10
2018-06-12T08:26:48.981Z,2.47
2018-06-12T08:29:46.877Z,2.30
2018-06-12T08:32:44.442Z,2.07
2018-06-12T08:35:42.067Z,1.53
2018-06-12T08:38:39.770Z,1.93
2018-06-12T08:41:37.665Z,1.87
2018-06-12T08:44:36.210Z,1.83
2018-06-12T08:47:34.122Z,2.10
2018-06-12T08:50:31.766Z,1.63
2018-06-12T08:53:29.429Z,1.97
2018-06-12T08:56:27.023Z,1.90
2018-06-12T08:59:24.821Z,2.13
2018-06-12T09:02:22.629Z,1.90
2018-06-12T09:05:20.237Z,2.40
2018-06-12T09:08:18.966Z,1.70
2018-06-12T09:11:17.747Z,1.73
2018-06-12T09:14:17.737Z,1.63
2018-06-12T09:17:15.633Z,1.70
2018-06-12T09:20:13.392Z,2.10
2018-06-12T09:23:11.287Z,2.00
2018-06-12T09:26:09.429Z,1.90
2018-06-12T09:29:07.315Z,1.63
2018-06-12T09:32:05.055Z,2.00
2018-06-12T09:35:03.091Z,2.00
2018-06-12T09:38:00.975Z,1.93
2018-06-12T09:40:58.736Z,2.03
2018-06-12T09:43:57.052Z,1.47
2018-06-12T09:46:55.402Z,1.30
2018-06-12T09:49:53.197Z,1.80
2018-06-12T09:52:50.923Z,1.80
2018-06-12T09:55:48.760Z,1.73
2018-06-12T09:58:46.632Z,1.50
2018-06-12T10:01:44.250Z,1.90
2018-06-12T10:04:42.759Z,1.50
2018-06-12T10:07:40.389Z,1.60
2018-06-12T10:10:38.258Z,1.53
2018-06-12T10:13:37.104Z,1.83
2018-06-12T10:16:34.750Z,2.57
2018-06-12T10:19:32.928Z,1.93
2018-06-12T10:22:30.261Z,1.57
2018-06-12T10:25:27.964Z,2.07
2018-06-12T10:28:25.982Z,1.73
2018-06-12T10:31:24.657Z,1.57
2018-06-12T10:34:22.795Z,2.07
2018-06-12T10:37:21.513Z,2.10
2018-06-12T10:40:20.207Z,1.70
2018-06-12T10:43:18.200Z,1.40
2018-06-12T10:46:16.201Z,2.03
2018-06-12T10:49:14.018Z,1.90
2018-06-12T10:52:11.798Z,1.97
2018-06-12T10:55:09.601Z,1.60
2018-06-12T10:58:07.508Z,1.70
2018-06-12T11:01:05.078Z,2.00
2018-06-12T11:04:02.904Z,1.30
2018-06-12T11:07:00.609Z,2.40
2018-06-12T11:09:58.259Z,1.90
2018-06-12T11:12:56.337Z,2.03
2018-06-12T11:15:54.025Z,1.50
2018-06-12T11:18:51.793Z,1.70
2018-06-12T11:21:49.467Z,2.07
2018-06-12T11:24:47.437Z,1.57
2018-06-12T11:27:45.215Z,2.17
2018-06-12T11:30:42.873Z,3.17
2018-06-12T11:33:40.787Z,4.17
2018-06-12T11:36:38.604Z,2.00
2018-06-12T11:39:36.395Z,2.00
2018-06-12T11:42:34.223Z,1.50
2018-06-12T11:45:32.050Z,1.50
2018-06-12T11:48:30.516Z,2.07
2018-06-12T11:51:28.716Z,1.83
2018-06-12T11:54:26.370Z,1.70
2018-06-12T11:57:24.159Z,2.20
2018-06-12T12:00:23.081Z,1.40
2018-06-12T12:03:20.939Z,1.73
2018-06-12T12:06:18.726Z,1.93
2018-06-12T12:09:16.339Z,1.60
2018-06-12T12:12:14.145Z,1.83
2018-06-12T12:15:12.043Z,2.50
2018-06-12T12:18:09.809Z,1.93
2018-06-12T12:21:07.526Z,1.30
2018-06-12T12:24:05.359Z,1.50
2018-06-12T12:27:03.229Z,1.70
2018-06-12T12:30:01.014Z,1.40
2018-06-12T12:32:58.870Z,1.83
2018-06-12T12:35:56.511Z,1.97
2018-06-12T12:38:54.291Z,1.40
2018-06-12T12:41:52.044Z,1.80
2018-06-12T12:44:50.660Z,1.50
2018-06-12T12:47:48.304Z,1.83
2018-06-12T12:50:46.091Z,1.70
2018-06-12T12:53:43.712Z,2.70
2018-06-12T12:56:41.636Z,1.20
2018-06-12T12:59:39.742Z,1.70
2018-06-12T13:02:37.420Z,2.27
2018-06-12T13:05:35.110Z,1.50
2018-06-12T13:08:32.971Z,1.77
2018-06-12T13:11:30.604Z,1.57
2018-06-12T13:14:28.330Z,1.37
2018-06-12T13:17:26.151Z,1.40
2018-06-12T13:20:23.796Z,1.80
2018-06-12T13:23:21.040Z,1.30
2018-06-12T13:26:18.812Z,1.70
2018-06-12T13:29:16.827Z,2.00
2018-06-12T13:32:14.502Z,1.73
2018-06-12T13:35:12.232Z,1.20
2018-06-12T13:38:10.150Z,1.47
2018-06-12T13:41:08.206Z,2.07
2018-06-12T13:44:06.068Z,1.73
2018-06-12T13:47:04.043Z,1.30
2018-06-12T13:50:01.706Z,1.30
2018-06-12T13:52:59.395Z,1.70
2018-06-12T13:55:58.466Z,1.63
2018-06-12T13:58:56.019Z,2.00
2018-06-12T14:01:53.770Z,1.57
2018-06-12T14:04:53.161Z,1.50
2018-06-12T14:07:52.203Z,1.67
2018-06-12T14:10:49.871Z,1.47
2018-06-12T14:13:47.742Z,1.67
2018-06-12T14:16:47.023Z,1.33
2018-06-12T14:19:45.029Z,1.47
2018-06-12T14:22:42.829Z,1.40
2018-06-12T14:25:40.504Z,1.53
2018-06-12T14:28:39.136Z,1.63
2018-06-12T14:31:36.793Z,1.43
2018-06-12T14:34:34.613Z,1.30
2018-06-12T14:37:32.394Z,1.53
2018-06-12T14:40:31.153Z,2.03
2018-06-12T14:43:28.788Z,1.57
2018-06-12T14:46:27.687Z,2.17
2018-06-12T14:49:25.156Z,1.23
2018-06-12T14:52:22.939Z,1.40
2018-06-12T14:55:20.693Z,1.50
2018-06-12T14:58:18.488Z,1.30
2018-06-12T15:01:16.495Z,1.63
2018-06-12T15:04:13.964Z,1.87
2018-06-12T15:07:11.452Z,1.57
2018-06-12T15:10:09.295Z,2.00
2018-06-12T15:13:08.213Z,2.13
2018-06-12T15:16:05.933Z,1.50
2018-06-12T15:19:04.057Z,2.10
2018-06-12T15:22:01.751Z,1.93
2018-06-12T15:24:59.788Z,2.70
2018-06-12T15:27:57.835Z,2.30
2018-06-12T15:30:55.079Z,2.93
2018-06-12T15:33:53.082Z,3.00
2018-06-12T15:36:51.855Z,1.40
2018-06-12T15:39:49.275Z,2.40
2018-06-12T15:42:46.889Z,1.50
2018-06-12T15:45:44.792Z,1.23
2018-06-12T15:48:41.966Z,1.53
2018-06-12T15:51:39.773Z,1.90
2018-06-12T15:54:37.497Z,1.87
2018-06-12T15:57:35.295Z,3.13
2018-06-12T16:00:33.092Z,2.50
2018-06-12T16:03:31.026Z,2.40
2018-06-12T16:06:28.915Z,2.30
2018-06-12T16:09:28.560Z,2.63
2018-06-12T16:12:26.177Z,2.00
2018-06-12T16:15:23.680Z,1.93
2018-06-12T16:18:21.555Z,2.13
2018-06-12T16:21:19.245Z,1.80
2018-06-12T16:24:17.283Z,3.23
2018-06-12T16:27:14.984Z,2.23
2018-06-12T16:30:12.879Z,1.60
2018-06-12T16:33:10.005Z,1.90
2018-06-12T16:35:59.701Z,1.90
2018-06-12T16:38:57.396Z,1.60
2018-06-12T16:41:55.297Z,1.30
2018-06-12T16:44:55.003Z,1.60
2018-06-12T16:47:52.822Z,3.87
2018-06-12T16:50:52.635Z,4.33
2018-06-12T16:53:50.460Z,1.87
2018-06-12T16:56:48.023Z,2.63
2018-06-12T16:59:45.625Z,5.93
2018-06-12T17:02:43.406Z,2.13
2018-06-12T17:05:41.163Z,6.83
2018-06-12T17:08:39.119Z,4.73
2018-06-12T17:11:37.111Z,5.40
2018-06-12T17:14:34.934Z,5.87
2018-06-12T17:17:32.646Z,5.23
2018-06-12T17:20:30.533Z,3.60
2018-06-12T17:23:29.146Z,3.27
2018-06-12T17:26:27.051Z,2.57
2018-06-12T17:29:26.823Z,2.87
2018-06-12T17:32:24.675Z,3.80
2018-06-12T17:35:23.440Z,2.30
2018-06-12T17:38:22.293Z,1.27
2018-06-12T17:41:21.105Z,1.10
2018-06-12T17:44:18.887Z,1.40
2018-06-12T17:47:16.707Z,1.20
2018-06-12T17:50:14.465Z,1.30
2018-06-12T17:53:12.204Z,1.00
2018-06-12T17:56:09.887Z,1.20
2018-06-12T17:59:07.671Z,1.37
2018-06-12T18:02:05.536Z,1.37
2018-06-12T18:05:03.299Z,0.93
2018-06-12T18:08:01.019Z,1.10
2018-06-12T18:10:58.750Z,1.40
2018-06-12T18:13:59.614Z,1.10
2018-06-12T18:16:57.423Z,1.63
2018-06-12T18:20:01.201Z,1.00
2018-06-12T18:22:58.754Z,1.10
2018-06-12T18:25:56.590Z,1.10
2018-06-12T18:28:54.407Z,1.37
2018-06-12T18:31:52.209Z,1.10
2018-06-12T18:34:50.025Z,1.70
2018-06-12T18:37:47.715Z,1.43
2018-06-12T18:40:45.563Z,1.73
2018-06-12T18:43:43.454Z,1.10
2018-06-12T18:46:41.221Z,1.10
2018-06-12T18:49:39.021Z,2.07
2018-06-12T18:52:36.861Z,1.10
2018-06-12T19:14:54.811Z,0.93
2018-06-12T19:17:52.418Z,1.30
2018-06-12T19:20:50.191Z,0.80
2018-06-12T19:23:47.835Z,1.17
2018-06-12T19:26:47.963Z,1.37
2018-06-12T19:29:45.489Z,1.00
2018-06-12T19:32:44.245Z,1.20
2018-06-12T19:35:43.166Z,0.90
2018-06-12T19:38:41.898Z,1.07
2018-06-12T19:41:40.625Z,2.07
2018-06-12T19:44:38.253Z,1.27
2018-06-12T19:47:35.909Z,1.10
2018-06-12T19:50:33.728Z,1.60
2018-06-12T19:53:31.463Z,1.03
2018-06-12T19:56:29.253Z,0.90
2018-06-12T19:59:27.127Z,1.03
2018-06-12T20:02:25.923Z,1.10
2018-06-12T20:05:24.555Z,1.40
2018-06-12T20:08:22.224Z,1.20
2018-06-12T20:11:20.001Z,0.80
2018-06-12T20:14:17.783Z,1.57
2018-06-12T20:17:15.521Z,1.20
2018-06-12T20:20:13.240Z,1.00
2018-06-12T20:23:10.964Z,1.10
2018-06-12T20:26:08.652Z,0.97
2018-06-12T20:29:06.588Z,1.17
2018-06-12T20:32:04.135Z,1.10
2018-06-12T20:35:03.127Z,1.30
2018-06-12T20:38:00.813Z,1.30
2018-06-12T20:41:06.674Z,1.60
2018-06-12T20:44:04.255Z,0.90
2018-06-12T20:47:01.907Z,1.67
2018-06-12T20:50:00.648Z,0.97
2018-06-12T20:52:59.376Z,0.90
2018-06-12T20:55:57.107Z,0.97
2018-06-12T20:58:54.836Z,1.93
2018-06-12T21:01:52.597Z,0.83
2018-06-12T21:04:50.690Z,0.77
2018-06-12T21:07:48.323Z,1.10
2018-06-12T21:10:45.948Z,0.90
2018-06-12T21:13:43.207Z,1.73
2018-06-12T21:16:40.826Z,1.13
2018-06-12T21:19:38.548Z,0.87
2018-06-12T21:22:36.314Z,0.70
2018-06-12T21:25:34.066Z,1.00
2018-06-12T21:28:31.809Z,1.00
2018-06-12T21:31:29.835Z,1.00
2018-06-12T21:34:27.490Z,1.10
2018-06-12T21:37:25.085Z,2.57
2018-06-12T21:40:22.907Z,1.00
2018-06-12T21:43:20.422Z,1.17
2018-06-12T21:46:18.199Z,1.03
2018-06-12T21:49:15.971Z,0.90
2018-06-12T21:52:13.740Z,1.47
2018-06-12T21:55:11.382Z,1.10
2018-06-12T21:58:09.133Z,0.90
2018-06-12T22:01:07.018Z,1.30
2018-06-12T22:04:04.683Z,1.30
2018-06-12T22:07:02.352Z,1.40
2018-06-12T22:10:00.117Z,1.20
2018-06-12T22:12:57.707Z,0.97
2018-06-12T22:15:55.607Z,1.00
2018-06-12T22:18:53.463Z,0.90
2018-06-12T22:21:51.463Z,1.07
2018-06-12T22:24:49.300Z,1.20
2018-06-12T22:27:47.030Z,1.10
2018-06-12T22:30:44.826Z,1.30
2018-06-12T22:33:42.699Z,1.90
2018-06-12T22:36:40.627Z,1.20
2018-06-12T22:39:38.391Z,1.13
2018-06-12T22:42:36.119Z,1.20
2018-06-12T22:45:33.889Z,1.50
2018-06-12T22:48:31.687Z,1.17
2018-06-12T22:51:29.513Z,1.40
2018-06-12T22:54:27.180Z,1.20
2018-06-12T22:57:25.243Z,1.20
2018-06-12T23:00:23.332Z,1.20
2018-06-12T23:03:21.341Z,0.90
2018-06-12T23:06:19.331Z,1.40
2018-06-12T23:09:16.762Z,1.00
2018-06-12T23:12:14.319Z,1.20
2018-06-12T23:15:12.112Z,1.17
2018-06-12T23:18:10.231Z,0.70
2018-06-12T23:21:19.886Z,1.07
2018-06-12T23:24:17.865Z,1.53
2018-06-12T23:27:15.722Z,1.10
2018-06-12T23:30:13.503Z,0.90
2018-06-12T23:33:11.337Z,1.60
2018-06-12T23:36:09.239Z,1.10
2018-06-12T23:39:09.112Z,0.73
2018-06-12T23:42:06.810Z,1.60
2018-06-12T23:45:04.436Z,1.50
2018-06-12T23:48:02.212Z,1.10
2018-06-12T23:51:00.022Z,1.10
2018-06-12T23:53:49.610Z,0.97
2018-06-12T23:56:47.340Z,1.10
2018-06-12T23:59:45.289Z,1.20
